Tropical Cyclones
[Index]
Main Index Home Page Stock Weather Photos Extreme Storms Discussion Storm News and Storm Chasing Reports Tropical Cyclones / Hurricanes / Typhoons Weather Data and Links Wild Fires / Bushfires Weather Observation Techniques Weather Picture Catalogue Tornado Pictures and Reports Stock Video Footage and DVDs for sale
Season 2006-2007 Tropical Cyclone XAVIER Track Map
Season 2006-2007 Summaries: [BoM-AU] [JTWC-AU] [JTWC-SIO] [JTWC-SPAC] [JTWC-SH]
<<- Previous TC | JTWC 2006-2007 Season | Next TC ->>

click for intensity scale information  Lat/long Grid: Show Hide

 Date Labels: Show Hide

Joint Typhoon Warning Centre Cyclone Data

Name: XAVIER

20 Oct 2006 12:00 UTC to 26 Oct 2006 06:00 UTC

    date/time    lat    long     hPa   cat  kts
2006-10-20 12    9.5   167.9    1004         20          
2006-10-20 18    9.6   168.0    1002         25          
2006-10-21 00    9.8   168.1    1002         25          
2006-10-21 06   10.0   168.1    1002         25          
2006-10-21 12   10.2   168.0    1000         30          
2006-10-21 18   10.5   167.9    1000         30          
2006-10-22 00   10.8   167.7     991    1    45          
2006-10-22 06   10.9   167.4     991    1    45          
2006-10-22 12   11.1   167.6     984    2    55          
2006-10-22 18   11.3   167.8     976    2    65          
2006-10-22 18   11.3   167.8     976    2    65          
2006-10-23 00   11.6   168.1     963    3    80          
2006-10-23 00   11.6   168.1     963    3    80          
2006-10-23 00   11.6   168.1     963    3    80          
2006-10-23 06   12.0   168.3     963    3    80          
2006-10-23 06   12.0   168.3     963    3    80          
2006-10-23 06   12.0   168.3     963    3    80          
2006-10-23 12   12.5   168.5     958    3    85          
2006-10-23 12   12.5   168.5     958    3    85          
2006-10-23 12   12.5   168.5     958    3    85          
2006-10-23 18   12.8   168.7     954    3    90          
2006-10-23 18   12.8   168.7     954    3    90          
2006-10-23 18   12.8   168.7     954    3    90          
2006-10-24 00   13.2   169.2     927    4   115          
2006-10-24 00   13.2   169.2     927    4   115          
2006-10-24 00   13.2   169.2     927    4   115          
2006-10-24 06   13.7   169.7     927    4   115          
2006-10-24 06   13.7   169.7     927    4   115          
2006-10-24 06   13.7   169.7     927    4   115          
2006-10-24 12   14.4   170.3     938    4   105          
2006-10-24 12   14.4   170.3     938    4   105          
2006-10-24 12   14.4   170.3     938    4   105          
2006-10-24 18   15.1   171.1     958    3    85          
2006-10-24 18   15.1   171.1     958    3    85          
2006-10-24 18   15.1   171.1     958    3    85          
2006-10-25 00   15.5   171.7     972    2    70          
2006-10-25 00   15.5   171.7     972    2    70          
2006-10-25 00   15.5   171.7     972    2    70          
2006-10-25 06   15.7   171.7     980    2    60          
2006-10-25 06   15.7   171.7     980    2    60          
2006-10-25 12   15.3   171.2     991    1    45          
2006-10-25 18   15.0   170.8     994    1    40          
2006-10-26 00   14.7   170.3    1000         30          
2006-10-26 06   14.2   169.9    1002         25          
Winds are 1-min average.

Tropical cyclone tracks developed by Michael Bath using data from the Joint Typhoon Warning Centre Best Tracks and Google Maps.


[Australian Severe Weather index] [Copyright Notice] [Email Contacts] [Search This Site] [Privacy Policy]
Document: tropical_cyclone_xavier.htm Updated: 28 June 2017